createdAt,value
2022-09-04T00:04:55.808Z,40.39
2022-09-04T00:10:23.934Z,41.44
2022-09-04T00:15:35.913Z,39.98
2022-09-04T00:21:08.024Z,39.74
2022-09-04T00:26:50.544Z,39.93
2022-09-04T00:32:20.231Z,38.80
2022-09-04T00:37:33.739Z,38.61
2022-09-04T00:43:02.266Z,38.84
2022-09-04T00:48:31.106Z,40.03
2022-09-04T00:54:10.676Z,38.96
2022-09-04T00:59:35.131Z,39.53
2022-09-04T01:05:09.956Z,38.80
2022-09-04T01:10:41.452Z,38.78
2022-09-04T01:16:02.613Z,39.72
2022-09-04T01:21:35.902Z,40.44
2022-09-04T01:26:56.660Z,39.34
2022-09-04T01:32:09.459Z,39.79
2022-09-04T01:37:25.967Z,39.89
2022-09-04T01:42:41.130Z,40.25
2022-09-04T01:47:50.966Z,39.88
2022-09-04T01:53:11.860Z,39.83
2022-09-04T01:58:34.575Z,40.38
2022-09-04T02:04:23.773Z,40.38
2022-09-04T02:10:08.411Z,40.62
2022-09-04T02:15:31.562Z,41.01
2022-09-04T02:20:34.911Z,42.02
2022-09-04T02:26:05.923Z,41.58
2022-09-04T02:31:39.029Z,41.49
2022-09-04T02:36:53.633Z,42.14
2022-09-04T02:42:18.418Z,42.50
2022-09-04T02:47:33.043Z,42.92
2022-09-04T02:53:04.727Z,43.24
2022-09-04T02:58:36.600Z,43.17
2022-09-04T03:04:01.644Z,43.07
2022-09-04T03:09:10.924Z,42.59
2022-09-04T03:14:39.201Z,42.14
2022-09-04T03:19:52.460Z,42.12
2022-09-04T03:25:26.678Z,41.55
2022-09-04T03:30:32.763Z,40.59
2022-09-04T03:35:43.784Z,41.04
2022-09-04T03:41:00.821Z,40.01
2022-09-04T03:46:24.001Z,41.24
2022-09-04T03:51:44.049Z,40.19
2022-09-04T03:56:46.987Z,41.14
2022-09-04T04:01:50.002Z,42.45
2022-09-04T04:07:55.605Z,45.30
2022-09-04T04:13:29.296Z,44.91
2022-09-04T04:18:46.736Z,43.22
2022-09-04T04:23:58.844Z,44.34
2022-09-04T04:29:20.167Z,43.76
2022-09-04T04:34:39.705Z,44.31
2022-09-04T04:39:52.443Z,43.87
2022-09-04T04:45:46.790Z,43.13
2022-09-04T04:51:11.060Z,43.80
2022-09-04T04:56:46.254Z,43.42
2022-09-04T05:02:10.680Z,42.79
2022-09-04T05:07:19.429Z,41.86
2022-09-04T05:12:56.513Z,42.46
2022-09-04T05:18:09.668Z,41.76
2022-09-04T05:23:41.681Z,41.57
2022-09-04T05:29:29.333Z,41.84
2022-09-04T05:35:02.828Z,41.03
2022-09-04T05:40:20.723Z,41.42
2022-09-04T05:45:58.320Z,39.83
2022-09-04T05:51:39.350Z,38.15
2022-09-04T05:57:04.771Z,36.02
2022-09-04T06:02:36.910Z,36.10
2022-09-04T06:07:48.717Z,36.33
2022-09-04T06:13:06.512Z,32.67
2022-09-04T06:18:34.744Z,31.07
2022-09-04T06:24:15.016Z,32.15
2022-09-04T06:29:36.430Z,30.36
2022-09-04T06:35:04.031Z,30.51
2022-09-04T06:40:34.375Z,27.01
2022-09-04T06:45:56.773Z,27.22
2022-09-04T06:51:32.848Z,28.66
2022-09-04T06:56:47.116Z,27.91
2022-09-04T07:02:06.598Z,24.74
2022-09-04T07:07:36.256Z,25.31
2022-09-04T07:13:06.739Z,22.39
2022-09-04T07:18:43.946Z,24.80
2022-09-04T07:24:16.245Z,23.45
2022-09-04T07:29:31.926Z,22.17
2022-09-04T07:35:27.177Z,25.35
2022-09-04T07:40:45.800Z,24.20
2022-09-04T07:46:14.151Z,25.17
2022-09-04T07:51:22.343Z,24.38
2022-09-04T07:56:49.941Z,25.09
2022-09-04T08:01:59.081Z,26.53
2022-09-04T08:07:24.902Z,26.71
2022-09-04T08:12:57.137Z,26.67
2022-09-04T08:18:03.507Z,27.12
2022-09-04T08:23:24.769Z,25.98
2022-09-04T08:28:40.953Z,26.77
2022-09-04T08:34:11.888Z,28.17
2022-09-04T08:39:59.267Z,26.61
2022-09-04T08:45:44.226Z,27.19
2022-09-04T08:50:56.570Z,28.90
2022-09-04T08:56:24.297Z,26.89
2022-09-04T09:01:38.874Z,28.13
2022-09-04T09:07:14.368Z,29.66
2022-09-04T09:12:41.448Z,29.36
2022-09-04T09:18:09.916Z,31.05
2022-09-04T09:23:18.700Z,30.32
2022-09-04T09:29:13.411Z,29.15
2022-09-04T09:34:47.401Z,28.84
2022-09-04T09:40:14.907Z,28.65
2022-09-04T09:45:48.573Z,29.71
2022-09-04T09:51:09.943Z,27.88
2022-09-04T09:56:13.423Z,27.64
2022-09-04T10:01:25.532Z,29.94
2022-09-04T10:06:46.376Z,29.14
2022-09-04T10:12:10.945Z,30.54
2022-09-04T10:17:42.720Z,31.10
2022-09-04T10:23:07.880Z,29.29
2022-09-04T10:28:47.676Z,29.22
2022-09-04T10:34:05.614Z,28.72
2022-09-04T10:39:41.267Z,27.11
2022-09-04T10:45:16.264Z,28.73
2022-09-04T10:50:55.757Z,28.93
2022-09-04T10:55:58.743Z,26.02
2022-09-04T11:01:20.428Z,26.29
2022-09-04T11:06:53.117Z,26.75
2022-09-04T11:12:30.488Z,25.63
2022-09-04T11:18:19.508Z,27.20
2022-09-04T11:23:36.674Z,27.79
2022-09-04T11:28:57.210Z,26.79
2022-09-04T11:34:33.453Z,26.57
2022-09-04T11:39:39.532Z,24.71
2022-09-04T11:45:07.603Z,25.11
2022-09-04T11:50:36.629Z,26.52
2022-09-04T11:55:40.522Z,24.85
2022-09-04T12:01:10.058Z,24.65
2022-09-04T12:06:28.605Z,24.55
2022-09-04T12:12:01.256Z,23.69
2022-09-04T12:17:26.568Z,26.34
2022-09-04T12:22:36.653Z,21.45
2022-09-04T12:28:05.672Z,23.43
2022-09-04T12:33:27.395Z,24.02
2022-09-04T12:38:44.280Z,21.53
2022-09-04T12:44:01.942Z,21.39
2022-09-04T12:49:49.596Z,22.54
2022-09-04T12:55:23.225Z,22.35
2022-09-04T13:00:31.647Z,24.04
2022-09-04T13:06:34.926Z,22.20
2022-09-04T13:11:46.889Z,23.42
2022-09-04T13:17:31.555Z,22.86
2022-09-04T13:23:05.326Z,22.15
2022-09-04T13:28:40.502Z,22.66
2022-09-04T13:34:21.264Z,23.21
2022-09-04T13:39:40.039Z,23.03
2022-09-04T13:45:05.973Z,23.80
2022-09-04T13:50:25.565Z,23.72
2022-09-04T13:55:35.320Z,19.25
2022-09-04T14:00:46.265Z,21.49
2022-09-04T14:05:50.457Z,22.22
2022-09-04T14:11:09.211Z,24.02
2022-09-04T14:16:15.905Z,22.31
2022-09-04T14:22:03.928Z,24.77
2022-09-04T14:27:20.899Z,24.28
2022-09-04T14:32:45.444Z,24.24
2022-09-04T14:38:14.985Z,23.22
2022-09-04T14:43:36.330Z,23.62
2022-09-04T14:48:48.361Z,24.53
2022-09-04T14:53:57.328Z,25.86
2022-09-04T14:59:33.186Z,24.73
2022-09-04T15:05:03.281Z,25.88
2022-09-04T15:10:19.072Z,27.04
2022-09-04T15:15:32.831Z,29.07
2022-09-04T15:20:39.181Z,29.94
2022-09-04T15:26:07.419Z,32.44
2022-09-04T15:31:21.356Z,31.60
2022-09-04T15:36:25.098Z,31.33
2022-09-04T15:41:43.626Z,33.32
2022-09-04T15:47:04.799Z,34.58
2022-09-04T15:52:36.868Z,33.50
2022-09-04T15:57:56.450Z,34.46
2022-09-04T16:03:28.152Z,35.17
2022-09-04T16:08:48.632Z,34.94
2022-09-04T16:13:58.458Z,36.93
2022-09-04T16:19:14.550Z,38.06
2022-09-04T16:24:36.053Z,36.92
2022-09-04T16:29:47.166Z,40.10
2022-09-04T16:35:11.317Z,40.23
2022-09-04T16:40:33.903Z,40.67
2022-09-04T16:45:47.301Z,41.17
2022-09-04T16:51:41.086Z,42.00
2022-09-04T16:56:53.672Z,43.59
2022-09-04T17:02:42.331Z,44.56
2022-09-04T17:08:03.705Z,44.07
2022-09-04T17:13:29.347Z,44.03
2022-09-04T17:18:32.907Z,45.43
2022-09-04T17:29:03.496Z,44.85
2022-09-04T17:29:44.595Z,43.48
2022-09-04T17:40:44.159Z,44.20
2022-09-04T17:41:39.957Z,46.55
2022-09-04T17:46:45.622Z,47.45
2022-09-04T17:51:59.469Z,48.73
2022-09-04T17:57:35.173Z,49.60
2022-09-04T18:02:41.542Z,55.77
2022-09-04T18:08:09.774Z,51.22
2022-09-04T18:13:36.500Z,53.04
2022-09-04T18:18:41.250Z,53.04
2022-09-04T18:24:16.848Z,51.45
2022-09-04T18:31:28.990Z,49.73
2022-09-04T18:37:26.558Z,47.93
2022-09-04T18:41:08.703Z,48.44
2022-09-04T18:50:38.909Z,50.09
2022-09-04T18:51:44.275Z,50.53
2022-09-04T18:56:53.943Z,51.02
2022-09-04T19:02:04.578Z,51.31
2022-09-04T19:07:34.693Z,49.22
2022-09-04T19:12:54.039Z,48.77
2022-09-04T19:18:15.458Z,47.86
2022-09-04T19:23:32.559Z,48.52
2022-09-04T19:28:53.133Z,47.94
2022-09-04T19:34:08.861Z,47.37
2022-09-04T19:46:00.737Z,47.25
2022-09-04T19:46:14.939Z,46.94
2022-09-04T19:53:23.202Z,47.16
2022-09-04T19:56:02.749Z,45.19
2022-09-04T20:01:18.149Z,44.59
2022-09-04T20:06:32.507Z,43.37
2022-09-04T20:11:44.713Z,43.51
2022-09-04T20:17:06.606Z,43.53
2022-09-04T20:22:49.268Z,43.30
2022-09-04T20:28:01.129Z,42.98
2022-09-04T20:33:13.586Z,42.78
2022-09-04T20:38:37.582Z,43.34
2022-09-04T20:43:49.499Z,44.57
2022-09-04T20:53:04.553Z,46.69
2022-09-04T20:55:11.565Z,46.62
2022-09-04T21:03:22.135Z,45.12
2022-09-04T21:06:06.990Z,45.37
2022-09-04T21:11:39.092Z,44.40
2022-09-04T21:17:33.376Z,42.96
2022-09-04T21:22:45.153Z,42.62
2022-09-04T21:28:03.573Z,45.34
2022-09-04T21:33:40.116Z,46.63
2022-09-04T21:39:17.478Z,50.08
2022-09-04T21:44:23.211Z,52.05
2022-09-04T21:49:41.559Z,52.08
2022-09-04T22:00:11.132Z,54.22
2022-09-04T22:02:40.286Z,53.92
2022-09-04T22:06:04.052Z,54.83
2022-09-04T22:13:38.744Z,55.27
2022-09-04T22:17:07.750Z,55.23
2022-09-04T22:22:17.630Z,56.43
2022-09-04T22:27:35.913Z,56.92
2022-09-04T22:33:09.308Z,57.11
2022-09-04T22:38:37.371Z,57.53
2022-09-04T22:44:09.330Z,57.80
2022-09-04T22:49:31.567Z,58.87
2022-09-04T22:54:57.234Z,59.41
2022-09-04T23:00:08.447Z,59.30
2022-09-04T23:05:22.664Z,59.91
2022-09-04T23:13:52.626Z,59.48
2022-09-04T23:16:37.823Z,59.12
2022-09-04T23:26:37.795Z,58.87
2022-09-04T23:27:35.318Z,59.01
2022-09-04T23:33:09.973Z,59.74
2022-09-04T23:38:22.707Z,60.46
2022-09-04T23:43:38.172Z,59.65
2022-09-04T23:49:06.854Z,57.96
2022-09-04T23:54:49.330Z,58.38
